Pieter Caland — PBTB — position and weather

sailwx.info

Track history (hours):
 
Tides and Currents Weather Stations Pressure Air Temp Water Temp Dewpoint Dewpoint Depression Visibility Wind Speed Wind Dir Waves Ship Positions

Pieter Caland

Last reported at 2016-Feb-07 08:33 UTC. Time now 2016-Feb-07 08:42 UTC.
Position S 34°14' W 058°05'.

Length 96 m; draft 3.1 m.

Type: Ship. MMSI: 244992000.

Date/timePositionNaut miles runAvg speedWind from/ knotsBaromVisibWave heightAir tempDewpointWater temp
2016-Feb-07 08:33S 34°14' W 058°05'5 5.1
2016-Feb-07 07:33S 34°18' W 058°01'5 5.1
2016-Feb-07 06:33S 34°14' W 058°05'1 1.3
2016-Feb-07 05:33S 34°15' W 058°04'0 0.2
2016-Feb-07 04:33S 34°15' W 058°04'1 1.5
2016-Feb-07 03:33S 34°14' W 058°05'5 5.5
2016-Feb-07 02:33S 34°18' W 058°01'5 5.5
2016-Feb-07 01:33S 34°14' W 058°05'5 5.3
2016-Feb-07 00:33S 34°18' W 058°01'5 4.6
2016-Feb-06 23:24S 34°14' W 058°05'0 0.0
2016-Feb-06 22:33S 34°14' W 058°05'0 0.0
2016-Feb-06 21:33S 34°14' W 058°05'5 5.2
2016-Feb-06 20:33S 34°18' W 058°01'5 5.3
2016-Feb-06 19:33S 34°14' W 058°05'0 0.0
2016-Feb-06 18:33S 34°14' W 058°05'0 0.0
2016-Feb-06 17:33S 34°14' W 058°05'5 5.2
2016-Feb-06 16:33S 34°18' W 058°01'5 5.2
2016-Feb-06 15:33S 34°14' W 058°05'0 0.0
2016-Feb-06 14:33S 34°14' W 058°05'0 0.0
2016-Feb-06 13:33S 34°14' W 058°05'0 0.0
2016-Feb-06 12:33S 34°14' W 058°05'3 2.9
2016-Feb-06 11:33S 34°16' W 058°03'3 2.8
2016-Feb-06 10:33S 34°14' W 058°05'0 0.4
2016-Feb-06 09:33S 34°14' W 058°04'0 0.5
2016-Feb-06 08:33S 34°14' W 058°04'1 0.9
2016-Feb-06 07:33S 34°14' W 058°05'4 4.1
2016-Feb-06 06:33S 34°17' W 058°02'4 4.1
2016-Feb-06 05:33S 34°14' W 058°05'0 0.0
2016-Feb-06 04:33S 34°14' W 058°05'0 0.1
2016-Feb-06 03:33S 34°14' W 058°05'3 2.8
2016-Feb-06 02:33S 34°16' W 058°03'3 2.8
2016-Feb-06 01:33S 34°14' W 058°05'0 0.0
2016-Feb-06 00:33S 34°14' W 058°05'4 4.4
2016-Feb-05 23:33S 34°17' W 058°02'4 4.4
2016-Feb-05 22:33S 34°14' W 058°05'0 0.0
2016-Feb-05 21:33S 34°14' W 058°05'0 0.0
2016-Feb-05 20:33S 34°14' W 058°05'0 0.0
2016-Feb-05 19:33S 34°14' W 058°05'4 4.5
2016-Feb-05 18:33S 34°17' W 058°02'4 4.5
2016-Feb-05 17:33S 34°14' W 058°05'0 0.0
2016-Feb-05 16:33S 34°14' W 058°05'0 0.0
2016-Feb-05 15:33S 34°14' W 058°05'0 0.0
2016-Feb-05 14:33S 34°14' W 058°05'0 0.0
2016-Feb-05 13:33S 34°14' W 058°05'0 0.1
2016-Feb-05 12:33S 34°14' W 058°05'2 1.7
2016-Feb-05 11:33S 34°15' W 058°03'1 1.1
2016-Feb-05 10:33S 34°16' W 058°03'3 2.8
2016-Feb-05 09:33S 34°14' W 058°05'1 0.9
2016-Feb-05 08:33S 34°14' W 058°04'1 1.4
2016-Feb-05 07:33S 34°16' W 058°03'2 2.2
2016-Feb-05 06:33S 34°14' W 058°05'0 0.0
2016-Feb-05 05:33S 34°14' W 058°05'5 4.7
2016-Feb-05 04:33S 34°18' W 058°02'5 4.7
2016-Feb-05 03:33S 34°14' W 058°05'0 0.0
2016-Feb-05 02:33S 34°14' W 058°05'0 0.0
2016-Feb-05 01:33S 34°14' W 058°05'3 2.7
2016-Feb-05 00:33S 34°16' W 058°03'3 2.7
2016-Feb-04 23:33S 34°14' W 058°05'0 0.0
2016-Feb-04 22:33S 34°14' W 058°05'0 0.0
2016-Feb-04 21:33S 34°14' W 058°05'4 3.6
2016-Feb-04 20:33S 34°17' W 058°02'4 3.1
2016-Feb-04 19:24S 34°14' W 058°05'3 4.0
2016-Feb-04 18:33S 34°17' W 058°02'3 3.3
2016-Feb-04 17:32S 34°14' W 058°05'0 0.0
2016-Feb-04 16:33S 34°14' W 058°05'2 2.3
2016-Feb-04 15:33S 34°16' W 058°03'1 1.3
2016-Feb-04 14:33S 34°15' W 058°04'1 1.0
2016-Feb-04 13:33S 34°14' W 058°05'4 3.6
2016-Feb-04 12:33S 34°17' W 058°02'4 3.6
2016-Feb-04 11:33S 34°14' W 058°05'4 2.0
2016-Feb-04 09:33S 34°17' W 058°02'0 0.1
2016-Feb-04 07:32S 34°17' W 058°02'1 0.6
2016-Feb-04 05:11S 34°16' W 058°03'2 3.8
2016-Feb-04 04:33S 34°18' W 058°01'5 4.3
2016-Feb-04 03:26S 34°14' W 058°05'5 6.0
2016-Feb-04 02:33S 34°18' W 058°01'5 5.3
2016-Feb-04 01:34S 34°14' W 058°05'5 4.6
2016-Feb-04 00:33S 34°18' W 058°02'4 2.1
2016-Feb-03 22:33S 34°14' W 058°04'2 2.3
2016-Feb-03 21:33S 34°16' W 058°03'3 2.1
2016-Feb-03 20:15S 34°14' W 058°05'5 7.7
2016-Feb-03 19:33S 34°18' W 058°01'5 2.3
2016-Feb-03 17:14S 34°14' W 058°05'3 0.9
2016-Feb-03 13:33S 34°16' W 058°02'3 3.1
2016-Feb-03 12:33S 34°14' W 058°05'2 1.6
2016-Feb-03 11:33S 34°15' W 058°04'0 0.1
2016-Feb-03 10:33S 34°15' W 058°04'1 1.1
2016-Feb-03 09:18S 34°14' W 058°05'5 6.5
2016-Feb-03 08:34S 34°18' W 058°01'5 3.2
2016-Feb-03 07:06S 34°14' W 058°05'5 8.5
2016-Feb-03 06:33S 34°18' W 058°01'5 2.0
2016-Feb-03 04:16S 34°14' W 058°05'5 6.8
2016-Feb-03 03:32S 34°18' W 058°01'5 3.8
2016-Feb-03 02:09S 34°14' W 058°05'5 8.9
2016-Feb-03 01:33S 34°18' W 058°01'5 2.2
2016-Feb-02 23:18S 34°14' W 058°05'5 6.9
2016-Feb-02 22:33S 34°18' W 058°01'5 2.2
2016-Feb-02 20:14S 34°14' W 058°05'5 7.2
2016-Feb-02 19:32S 34°18' W 058°01'5 4.8
2016-Feb-02 18:26S 34°14' W 058°05'0 0.0
2016-Feb-02 16:03S 34°14' W 058°05'4 7.5
2016-Feb-02 15:33S 34°17' W 058°02'4 1.7
2016-Feb-02 13:22S 34°14' W 058°05'5 6.3
2016-Feb-02 12:33S 34°18' W 058°01'3 1.7
2016-Feb-02 10:33S 34°15' W 058°03'1 1.2
2016-Feb-02 09:33S 34°14' W 058°04'0 0.1
2016-Feb-02 08:33S 34°14' W 058°04'2 1.6
2016-Feb-02 07:33S 34°16' W 058°03'1 0.4
2016-Feb-02 05:33S 34°16' W 058°03'1 0.6
2016-Feb-02 03:33S 34°15' W 058°03'2 1.5
2016-Feb-02 02:33S 34°14' W 058°04'0 0.3
2016-Feb-02 01:29S 34°14' W 058°05'3 3.8
2016-Feb-02 00:33S 34°17' W 058°02'3 2.8
2016-Feb-01 23:21S 34°14' W 058°05'5 6.3
2016-Feb-01 22:33S 34°18' W 058°01'4 2.0
2016-Feb-01 20:33S 34°14' W 058°04'0 0.3
2016-Feb-01 19:33S 34°15' W 058°04'1 0.8
2016-Feb-01 18:03S 34°14' W 058°05'5 9.5
2016-Feb-01 17:33S 34°18' W 058°02'5 2.2
2016-Feb-01 15:25S 34°14' W 058°05'4 4.7
2016-Feb-01 14:33S 34°17' W 058°02'4 3.3
2016-Feb-01 13:17S 34°14' W 058°05'5 6.8
2016-Feb-01 12:32S 34°18' W 058°01'5 4.0
2016-Feb-01 11:14S 34°14' W 058°05'0 0.1
2016-Feb-01 08:15S 34°14' W 058°05'5 6.5
2016-Feb-01 07:30S 34°18' W 058°01'1 0.7
2016-Feb-01 05:32S 34°17' W 058°02'1 0.7
2016-Feb-01 03:33S 34°16' W 058°03'2 0.8
2016-Feb-01 01:33S 34°14' W 058°04'0 0.5
2016-Feb-01 00:33S 34°14' W 058°04'0 0.1
2016-Jan-31 23:28S 34°14' W 058°05'1 1.6
2016-Jan-31 22:33S 34°15' W 058°03'1 1.1
2016-Jan-31 21:20S 34°14' W 058°05'4 4.5
2016-Jan-31 20:33S 34°17' W 058°02'4 2.6
2016-Jan-31 19:06S 34°14' W 058°05'5 8.7
2016-Jan-31 18:33S 34°18' W 058°01'1 0.5
2016-Jan-31 16:33S 34°17' W 058°02'4 1.9
2016-Jan-31 14:29S 34°14' W 058°05'4 4.0
2016-Jan-31 13:33S 34°17' W 058°02'1 0.3
2016-Jan-31 11:33S 34°17' W 058°02'4 2.0
2016-Jan-31 09:19S 34°14' W 058°05'5 6.6
2016-Jan-31 08:33S 34°18' W 058°01'2 1.2
2016-Jan-31 06:33S 34°16' W 058°03'3 0.8
2016-Jan-31 03:18S 34°14' W 058°05'0 0.0
2016-Jan-31 02:33S 34°14' W 058°05'5 5.1
2016-Jan-31 01:33S 34°18' W 058°01'5 5.1
2016-Jan-31 00:33S 34°14' W 058°05'0 0.0
2016-Jan-30 23:33S 34°14' W 058°05'2 1.9
2016-Jan-30 22:33S 34°15' W 058°03'2 1.8
2016-Jan-30 21:33S 34°14' W 058°05'5 4.9
2016-Jan-30 20:33S 34°18' W 058°01'5 4.8
2016-Jan-30 19:33S 34°14' W 058°05'4 3.6
2016-Jan-30 18:33S 34°16' W 058°02'4 3.5
2016-Jan-30 17:33S 34°14' W 058°05'0 0.0
2016-Jan-30 16:33S 34°14' W 058°05'5 5.0
2016-Jan-30 15:34S 34°18' W 058°01'5 5.0
2016-Jan-30 14:33S 34°14' W 058°05'0 0.0
2016-Jan-30 13:33S 34°14' W 058°05'5 5.0
2016-Jan-30 12:33S 34°18' W 058°01'5 5.0
2016-Jan-30 11:33S 34°14' W 058°05'0 0.0
2016-Jan-30 10:33S 34°14' W 058°05'5 5.0
2016-Jan-30 09:33S 34°18' W 058°01'5 4.6
2016-Jan-30 08:26S 34°14' W 058°05'0 0.1
2016-Jan-30 07:33S 34°14' W 058°05'3 3.5
2016-Jan-30 06:33S 34°16' W 058°02'3 3.4
2016-Jan-30 05:33S 34°14' W 058°05'5 4.8
2016-Jan-30 04:33S 34°18' W 058°02'5 4.8
2016-Jan-30 03:33S 34°14' W 058°05'0 0.0
2016-Jan-30 02:33S 34°14' W 058°05'3 2.6
2016-Jan-30 01:33S 34°16' W 058°03'3 2.6
2016-Jan-30 00:33S 34°14' W 058°05'5 4.9
2016-Jan-29 23:33S 34°18' W 058°01'5 4.9
2016-Jan-29 22:33S 34°14' W 058°05'3 2.6
2016-Jan-29 21:33S 34°16' W 058°03'3 2.6
2016-Jan-29 20:33S 34°14' W 058°05'1 1.0
2016-Jan-29 19:33S 34°14' W 058°04'0 0.4
2016-Jan-29 18:33S 34°15' W 058°04'1 1.3
2016-Jan-29 17:29S 34°14' W 058°05'2 1.9
2016-Jan-29 16:33S 34°15' W 058°03'2 1.7
2016-Jan-29 15:33S 34°14' W 058°05'0 0.1
2016-Jan-29 14:33S 34°14' W 058°05'5 4.6
2016-Jan-29 13:29S 34°18' W 058°01'5 5.3
2016-Jan-29 12:33S 34°14' W 058°05'3 2.9
2016-Jan-29 11:33S 34°16' W 058°03'3 2.9
2016-Jan-29 10:33S 34°14' W 058°05'0 0.0
2016-Jan-29 09:33S 34°14' W 058°05'4 4.1
2016-Jan-29 08:33S 34°17' W 058°02'4 4.1
2016-Jan-29 07:33S 34°14' W 058°05'4 4.3
2016-Jan-29 06:33S 34°17' W 058°02'4 4.3
2016-Jan-29 05:33S 34°14' W 058°05'2 1.7
2016-Jan-29 04:31S 34°15' W 058°03'1 1.4
2016-Jan-29 03:33S 34°14' W 058°04'0 0.4
2016-Jan-29 02:33S 34°14' W 058°05'4 3.5
2016-Jan-29 01:33S 34°17' W 058°02'4 3.4
2016-Jan-29 00:31S 34°14' W 058°05'5 5.4
2016-Jan-28 23:33S 34°18' W 058°01'5 5.2
2016-Jan-28 22:33S 34°14' W 058°05'0 0.0
2016-Jan-28 21:33S 34°14' W 058°05'0 0.0
2016-Jan-28 20:33S 34°14' W 058°05'0 0.0
2016-Jan-28 19:33S 34°14' W 058°05'6 5.7
2016-Jan-28 18:33S 34°18' W 058°01'6 5.7
2016-Jan-28 17:33S 34°14' W 058°05'0 0.0
2016-Jan-28 16:33S 34°14' W 058°05'0 0.1
2016-Jan-28 15:28S 34°14' W 058°05'0 0.2
2016-Jan-28 14:31S 34°14' W 058°04'  
Track history (hours):
 
Tides and Currents Weather Stations Pressure Air Temp Water Temp Dewpoint Dewpoint Depression Visibility Wind Speed Wind Dir Waves Ship Positions

Pieter Caland

Last reported at 2016-Feb-07 08:33 UTC. Time now 2016-Feb-07 08:42 UTC.
Position S 34°14' W 058°05'.

Length 96 m; draft 3.1 m.

Type: Ship. MMSI: 244992000.

Date/timePositionNaut miles runAvg speedWind from/ knotsBaromVisibWave heightAir tempDewpointWater temp
2016-Feb-07 08:33S 34°14' W 058°05'5 5.1
2016-Feb-07 07:33S 34°18' W 058°01'5 5.1
2016-Feb-07 06:33S 34°14' W 058°05'1 1.3
2016-Feb-07 05:33S 34°15' W 058°04'0 0.2
2016-Feb-07 04:33S 34°15' W 058°04'1 1.5
2016-Feb-07 03:33S 34°14' W 058°05'5 5.5
2016-Feb-07 02:33S 34°18' W 058°01'5 5.5
2016-Feb-07 01:33S 34°14' W 058°05'5 5.3
2016-Feb-07 00:33S 34°18' W 058°01'5 4.6
2016-Feb-06 23:24S 34°14' W 058°05'0 0.0
2016-Feb-06 22:33S 34°14' W 058°05'0 0.0
2016-Feb-06 21:33S 34°14' W 058°05'5 5.2
2016-Feb-06 20:33S 34°18' W 058°01'5 5.3
2016-Feb-06 19:33S 34°14' W 058°05'0 0.0
2016-Feb-06 18:33S 34°14' W 058°05'0 0.0
2016-Feb-06 17:33S 34°14' W 058°05'5 5.2
2016-Feb-06 16:33S 34°18' W 058°01'5 5.2
2016-Feb-06 15:33S 34°14' W 058°05'0 0.0
2016-Feb-06 14:33S 34°14' W 058°05'0 0.0
2016-Feb-06 13:33S 34°14' W 058°05'0 0.0
2016-Feb-06 12:33S 34°14' W 058°05'3 2.9
2016-Feb-06 11:33S 34°16' W 058°03'3 2.8
2016-Feb-06 10:33S 34°14' W 058°05'0 0.4
2016-Feb-06 09:33S 34°14' W 058°04'0 0.5
2016-Feb-06 08:33S 34°14' W 058°04'1 0.9
2016-Feb-06 07:33S 34°14' W 058°05'4 4.1
2016-Feb-06 06:33S 34°17' W 058°02'4 4.1
2016-Feb-06 05:33S 34°14' W 058°05'0 0.0
2016-Feb-06 04:33S 34°14' W 058°05'0 0.1
2016-Feb-06 03:33S 34°14' W 058°05'3 2.8
2016-Feb-06 02:33S 34°16' W 058°03'3 2.8
2016-Feb-06 01:33S 34°14' W 058°05'0 0.0
2016-Feb-06 00:33S 34°14' W 058°05'4 4.4
2016-Feb-05 23:33S 34°17' W 058°02'4 4.4
2016-Feb-05 22:33S 34°14' W 058°05'0 0.0
2016-Feb-05 21:33S 34°14' W 058°05'0 0.0
2016-Feb-05 20:33S 34°14' W 058°05'0 0.0
2016-Feb-05 19:33S 34°14' W 058°05'4 4.5
2016-Feb-05 18:33S 34°17' W 058°02'4 4.5
2016-Feb-05 17:33S 34°14' W 058°05'0 0.0
2016-Feb-05 16:33S 34°14' W 058°05'0 0.0
2016-Feb-05 15:33S 34°14' W 058°05'0 0.0
2016-Feb-05 14:33S 34°14' W 058°05'0 0.0
2016-Feb-05 13:33S 34°14' W 058°05'0 0.1
2016-Feb-05 12:33S 34°14' W 058°05'2 1.7
2016-Feb-05 11:33S 34°15' W 058°03'1 1.1
2016-Feb-05 10:33S 34°16' W 058°03'3 2.8
2016-Feb-05 09:33S 34°14' W 058°05'1 0.9
2016-Feb-05 08:33S 34°14' W 058°04'1 1.4
2016-Feb-05 07:33S 34°16' W 058°03'2 2.2
2016-Feb-05 06:33S 34°14' W 058°05'0 0.0
2016-Feb-05 05:33S 34°14' W 058°05'5 4.7
2016-Feb-05 04:33S 34°18' W 058°02'5 4.7
2016-Feb-05 03:33S 34°14' W 058°05'0 0.0
2016-Feb-05 02:33S 34°14' W 058°05'0 0.0
2016-Feb-05 01:33S 34°14' W 058°05'3 2.7
2016-Feb-05 00:33S 34°16' W 058°03'3 2.7
2016-Feb-04 23:33S 34°14' W 058°05'0 0.0
2016-Feb-04 22:33S 34°14' W 058°05'0 0.0
2016-Feb-04 21:33S 34°14' W 058°05'4 3.6
2016-Feb-04 20:33S 34°17' W 058°02'4 3.1
2016-Feb-04 19:24S 34°14' W 058°05'3 4.0
2016-Feb-04 18:33S 34°17' W 058°02'3 3.3
2016-Feb-04 17:32S 34°14' W 058°05'0 0.0
2016-Feb-04 16:33S 34°14' W 058°05'2 2.3
2016-Feb-04 15:33S 34°16' W 058°03'1 1.3
2016-Feb-04 14:33S 34°15' W 058°04'1 1.0
2016-Feb-04 13:33S 34°14' W 058°05'4 3.6
2016-Feb-04 12:33S 34°17' W 058°02'4 3.6
2016-Feb-04 11:33S 34°14' W 058°05'4 2.0
2016-Feb-04 09:33S 34°17' W 058°02'0 0.1
2016-Feb-04 07:32S 34°17' W 058°02'1 0.6
2016-Feb-04 05:11S 34°16' W 058°03'2 3.8
2016-Feb-04 04:33S 34°18' W 058°01'5 4.3
2016-Feb-04 03:26S 34°14' W 058°05'5 6.0
2016-Feb-04 02:33S 34°18' W 058°01'5 5.3
2016-Feb-04 01:34S 34°14' W 058°05'5 4.6
2016-Feb-04 00:33S 34°18' W 058°02'4 2.1
2016-Feb-03 22:33S 34°14' W 058°04'2 2.3
2016-Feb-03 21:33S 34°16' W 058°03'3 2.1
2016-Feb-03 20:15S 34°14' W 058°05'5 7.7
2016-Feb-03 19:33S 34°18' W 058°01'5 2.3
2016-Feb-03 17:14S 34°14' W 058°05'3 0.9
2016-Feb-03 13:33S 34°16' W 058°02'3 3.1
2016-Feb-03 12:33S 34°14' W 058°05'2 1.6
2016-Feb-03 11:33S 34°15' W 058°04'0 0.1
2016-Feb-03 10:33S 34°15' W 058°04'1 1.1
2016-Feb-03 09:18S 34°14' W 058°05'5 6.5
2016-Feb-03 08:34S 34°18' W 058°01'5 3.2
2016-Feb-03 07:06S 34°14' W 058°05'5 8.5
2016-Feb-03 06:33S 34°18' W 058°01'5 2.0
2016-Feb-03 04:16S 34°14' W 058°05'5 6.8
2016-Feb-03 03:32S 34°18' W 058°01'5 3.8
2016-Feb-03 02:09S 34°14' W 058°05'5 8.9
2016-Feb-03 01:33S 34°18' W 058°01'5 2.2
2016-Feb-02 23:18S 34°14' W 058°05'5 6.9
2016-Feb-02 22:33S 34°18' W 058°01'5 2.2
2016-Feb-02 20:14S 34°14' W 058°05'5 7.2
2016-Feb-02 19:32S 34°18' W 058°01'5 4.8
2016-Feb-02 18:26S 34°14' W 058°05'0 0.0
2016-Feb-02 16:03S 34°14' W 058°05'4 7.5
2016-Feb-02 15:33S 34°17' W 058°02'4 1.7
2016-Feb-02 13:22S 34°14' W 058°05'5 6.3
2016-Feb-02 12:33S 34°18' W 058°01'3 1.7
2016-Feb-02 10:33S 34°15' W 058°03'1 1.2
2016-Feb-02 09:33S 34°14' W 058°04'0 0.1
2016-Feb-02 08:33S 34°14' W 058°04'2 1.6
2016-Feb-02 07:33S 34°16' W 058°03'1 0.4
2016-Feb-02 05:33S 34°16' W 058°03'1 0.6
2016-Feb-02 03:33S 34°15' W 058°03'2 1.5
2016-Feb-02 02:33S 34°14' W 058°04'0 0.3
2016-Feb-02 01:29S 34°14' W 058°05'3 3.8
2016-Feb-02 00:33S 34°17' W 058°02'3 2.8
2016-Feb-01 23:21S 34°14' W 058°05'5 6.3
2016-Feb-01 22:33S 34°18' W 058°01'4 2.0
2016-Feb-01 20:33S 34°14' W 058°04'0 0.3
2016-Feb-01 19:33S 34°15' W 058°04'1 0.8
2016-Feb-01 18:03S 34°14' W 058°05'5 9.5
2016-Feb-01 17:33S 34°18' W 058°02'5 2.2
2016-Feb-01 15:25S 34°14' W 058°05'4 4.7
2016-Feb-01 14:33S 34°17' W 058°02'4 3.3
2016-Feb-01 13:17S 34°14' W 058°05'5 6.8
2016-Feb-01 12:32S 34°18' W 058°01'5 4.0
2016-Feb-01 11:14S 34°14' W 058°05'0 0.1
2016-Feb-01 08:15S 34°14' W 058°05'5 6.5
2016-Feb-01 07:30S 34°18' W 058°01'1 0.7
2016-Feb-01 05:32S 34°17' W 058°02'1 0.7
2016-Feb-01 03:33S 34°16' W 058°03'2 0.8
2016-Feb-01 01:33S 34°14' W 058°04'0 0.5
2016-Feb-01 00:33S 34°14' W 058°04'0 0.1
2016-Jan-31 23:28S 34°14' W 058°05'1 1.6
2016-Jan-31 22:33S 34°15' W 058°03'1 1.1
2016-Jan-31 21:20S 34°14' W 058°05'4 4.5
2016-Jan-31 20:33S 34°17' W 058°02'4 2.6
2016-Jan-31 19:06S 34°14' W 058°05'5 8.7
2016-Jan-31 18:33S 34°18' W 058°01'1 0.5
2016-Jan-31 16:33S 34°17' W 058°02'4 1.9
2016-Jan-31 14:29S 34°14' W 058°05'4 4.0
2016-Jan-31 13:33S 34°17' W 058°02'1 0.3
2016-Jan-31 11:33S 34°17' W 058°02'4 2.0
2016-Jan-31 09:19S 34°14' W 058°05'5 6.6
2016-Jan-31 08:33S 34°18' W 058°01'2 1.2
2016-Jan-31 06:33S 34°16' W 058°03'3 0.8
2016-Jan-31 03:18S 34°14' W 058°05'0 0.0
2016-Jan-31 02:33S 34°14' W 058°05'5 5.1
2016-Jan-31 01:33S 34°18' W 058°01'5 5.1
2016-Jan-31 00:33S 34°14' W 058°05'0 0.0
2016-Jan-30 23:33S 34°14' W 058°05'2 1.9
2016-Jan-30 22:33S 34°15' W 058°03'2 1.8
2016-Jan-30 21:33S 34°14' W 058°05'5 4.9
2016-Jan-30 20:33S 34°18' W 058°01'5 4.8
2016-Jan-30 19:33S 34°14' W 058°05'4 3.6
2016-Jan-30 18:33S 34°16' W 058°02'4 3.5
2016-Jan-30 17:33S 34°14' W 058°05'0 0.0
2016-Jan-30 16:33S 34°14' W 058°05'5 5.0
2016-Jan-30 15:34S 34°18' W 058°01'5 5.0
2016-Jan-30 14:33S 34°14' W 058°05'0 0.0
2016-Jan-30 13:33S 34°14' W 058°05'5 5.0
2016-Jan-30 12:33S 34°18' W 058°01'5 5.0
2016-Jan-30 11:33S 34°14' W 058°05'0 0.0
2016-Jan-30 10:33S 34°14' W 058°05'5 5.0
2016-Jan-30 09:33S 34°18' W 058°01'5 4.6
2016-Jan-30 08:26S 34°14' W 058°05'0 0.1
2016-Jan-30 07:33S 34°14' W 058°05'3 3.5
2016-Jan-30 06:33S 34°16' W 058°02'3 3.4
2016-Jan-30 05:33S 34°14' W 058°05'5 4.8
2016-Jan-30 04:33S 34°18' W 058°02'5 4.8
2016-Jan-30 03:33S 34°14' W 058°05'0 0.0
2016-Jan-30 02:33S 34°14' W 058°05'3 2.6
2016-Jan-30 01:33S 34°16' W 058°03'3 2.6
2016-Jan-30 00:33S 34°14' W 058°05'5 4.9
2016-Jan-29 23:33S 34°18' W 058°01'5 4.9
2016-Jan-29 22:33S 34°14' W 058°05'3 2.6
2016-Jan-29 21:33S 34°16' W 058°03'3 2.6
2016-Jan-29 20:33S 34°14' W 058°05'1 1.0
2016-Jan-29 19:33S 34°14' W 058°04'0 0.4
2016-Jan-29 18:33S 34°15' W 058°04'1 1.3
2016-Jan-29 17:29S 34°14' W 058°05'2 1.9
2016-Jan-29 16:33S 34°15' W 058°03'2 1.7
2016-Jan-29 15:33S 34°14' W 058°05'0 0.1
2016-Jan-29 14:33S 34°14' W 058°05'5 4.6
2016-Jan-29 13:29S 34°18' W 058°01'5 5.3
2016-Jan-29 12:33S 34°14' W 058°05'3 2.9
2016-Jan-29 11:33S 34°16' W 058°03'3 2.9
2016-Jan-29 10:33S 34°14' W 058°05'0 0.0
2016-Jan-29 09:33S 34°14' W 058°05'4 4.1
2016-Jan-29 08:33S 34°17' W 058°02'4 4.1
2016-Jan-29 07:33S 34°14' W 058°05'4 4.3
2016-Jan-29 06:33S 34°17' W 058°02'4 4.3
2016-Jan-29 05:33S 34°14' W 058°05'2 1.7
2016-Jan-29 04:31S 34°15' W 058°03'1 1.4
2016-Jan-29 03:33S 34°14' W 058°04'0 0.4
2016-Jan-29 02:33S 34°14' W 058°05'4 3.5
2016-Jan-29 01:33S 34°17' W 058°02'4 3.4
2016-Jan-29 00:31S 34°14' W 058°05'5 5.4
2016-Jan-28 23:33S 34°18' W 058°01'5 5.2
2016-Jan-28 22:33S 34°14' W 058°05'0 0.0
2016-Jan-28 21:33S 34°14' W 058°05'0 0.0
2016-Jan-28 20:33S 34°14' W 058°05'0 0.0
2016-Jan-28 19:33S 34°14' W 058°05'6 5.7
2016-Jan-28 18:33S 34°18' W 058°01'6 5.7
2016-Jan-28 17:33S 34°14' W 058°05'0 0.0
2016-Jan-28 16:33S 34°14' W 058°05'0 0.1
2016-Jan-28 15:28S 34°14' W 058°05'0 0.2
2016-Jan-28 14:31S 34°14' W 058°04'  

Dump ship's entire track history